NCAR-RAP Real-Time Weather Data

Output produced by METARs form (17 September 2019  16:12 UTC)
found at http://weather.rap.ucar.edu/surface/
 
KLGA 171551Z 05012KT 10SM FEW250 23/05 A3014 RMK AO2 SLP205 T02280050
KLGA 171451Z 05008G20KT 10SM CLR 22/07 A3015 RMK AO2 SLP210 T02220067 51006
KLGA 171351Z 06006KT 10SM CLR 21/09 A3015 RMK AO2 SLP209 T02060089
KLGA 171251Z 01005KT 10SM CLR 19/08 A3014 RMK AO2 SLP207 T01940078
KLGA 171151Z 01005KT 10SM CLR 18/08 A3013 RMK AO2 SLP204 T01780083 10200 20172 51018
KLGA 171051Z 01007KT 10SM FEW250 17/09 A3012 RMK AO2 SLP200 T01720089
KLGA 170951Z 03008KT 10SM CLR 18/09 A3010 RMK AO2 SLP192 T01780094
KLGA 170851Z 03007KT 10SM FEW047 18/09 A3008 RMK AO2 SLP187 T01830094 51003
KLGA 170751Z 03008KT 10SM SCT047 19/09 A3008 RMK AO2 SLP186 T01890094
KLGA 170651Z 03007KT 10SM BKN043 19/11 A3008 RMK AO2 SLP185 T01940106
KLGA 170551Z 01005KT 10SM BKN038 BKN050 20/12 A3007 RMK AO2 SLP183 T02000117 10233 20200 51010
KLGA 170451Z 08008KT 10SM OVC037 21/11 A3007 RMK AO2 SLP181 T02110111 402500211
KLGA 170351Z 08006KT 10SM BKN036 BKN045 BKN060 22/16 A3006 RMK AO2 SLP178 T02170156
KLGA 170251Z 06007KT 10SM SCT039 SCT049 SCT120 22/16 A3004 RMK AO2 SLP173 T02220161 52009
KLGA 170051Z 07004KT 10SM FEW050 BKN075 23/16 A3003 RMK AO2 SLP168 T02280161
KLGA 162351Z 06007KT 10SM FEW035 BKN070 BKN120 23/16 A3002 RMK AO2 SLP164 T02330161 10250 20233 53006
KLGA 162251Z 08007KT 10SM FEW035 BKN055 BKN120 23/17 A3000 RMK AO2 SLP159 T02330167
KLGA 162151Z 06007KT 10SM FEW050 BKN075 OVC110 24/16 A3000 RMK AO2 SLP158 T02390161
KLGA 162051Z 05008KT 10SM SCT039 BKN055 BKN130 24/16 A3000 RMK AO2 SLP158 T02440156 56012
KLGA 161951Z 05005KT 10SM SCT041 BKN070 BKN120 24/15 A3000 RMK AO2 SLP159 T02440150
KLGA 161851Z 04004KT 10SM FEW042 SCT070 BKN090 BKN150 24/15 A3002 RMK AO2 SLP165 T02390150